Time;durP1;ratioP1;P1;durP2;ratioP2;P2;SDS_P1;SDS_P2;PMS_P1;PMS_P2;Temp;Humidity;BMP_temperature;BMP_pressure;BME280_temperature;BME280_humidity;BME280_pressure;Samples;Min_cycle;Max_cycle;Signal;HPM_P1;HPM_P2
2022/12/11 00:00:04;;;;;;;60.93;20.97;;;0.80;99.90;;;;;;5075320;28;20163;-78
2022/12/11 00:02:30;;;;;;;70.43;23.43;;;0.80;99.90;;;;;;5075236;28;20182;-78
2022/12/11 00:04:55;;;;;;;70.33;23.40;;;0.90;99.90;;;;;;5056992;28;20599;-76
2022/12/11 00:07:21;;;;;;;67.97;23.17;;;0.90;99.90;;;;;;5074894;28;20194;-77
2022/12/11 00:09:46;;;;;;;53.83;20.37;;;0.80;99.90;;;;;;5075186;28;20177;-78
2022/12/11 00:12:12;;;;;;;67.30;22.20;;;0.70;99.90;;;;;;5057079;28;20206;-78
2022/12/11 00:14:37;;;;;;;64.17;22.73;;;0.70;99.90;;;;;;5057003;28;20167;-78
2022/12/11 00:17:03;;;;;;;60.00;22.13;;;0.70;99.90;;;;;;5074946;28;20220;-78
2022/12/11 00:19:28;;;;;;;59.10;21.43;;;0.70;99.90;;;;;;5075074;28;20174;-78
2022/12/11 00:21:54;;;;;;;62.90;20.83;;;0.70;99.90;;;;;;5056854;28;20179;-77
2022/12/11 00:24:19;;;;;;;66.40;22.40;;;0.70;99.90;;;;;;5056917;28;20185;-78
2022/12/11 00:26:45;;;;;;;73.10;22.37;;;0.70;99.90;;;;;;5074864;28;20199;-78
2022/12/11 00:29:13;;;;;;;64.13;22.87;;;0.70;99.90;;;;;;5074974;28;20174;-78
2022/12/11 00:31:40;;;;;;;65.00;23.00;;;0.70;99.90;;;;;;5074574;28;20267;-78
2022/12/11 00:34:06;;;;;;;60.83;22.50;;;0.60;99.90;;;;;;5056762;28;20495;-78
2022/12/11 00:36:32;;;;;;;68.03;22.40;;;0.60;99.90;;;;;;5056963;28;20289;-78
2022/12/11 00:38:57;;;;;;;69.67;24.90;;;0.60;99.90;;;;;;5074877;28;20230;-77
2022/12/11 00:41:23;;;;;;;70.83;23.23;;;0.60;99.90;;;;;;5057491;28;20235;-78
2022/12/11 00:43:48;;;;;;;67.00;23.10;;;0.60;99.90;;;;;;5074544;28;20164;-77
2022/12/11 00:46:14;;;;;;;69.63;24.03;;;0.70;99.90;;;;;;5074608;28;20166;-77
2022/12/11 00:48:40;;;;;;;75.17;23.03;;;0.70;99.90;;;;;;5056310;28;20174;-78
2022/12/11 00:51:06;;;;;;;60.30;21.17;;;0.60;99.90;;;;;;5056416;28;20567;-78
2022/12/11 00:53:31;;;;;;;52.50;19.57;;;0.60;99.90;;;;;;5074236;28;20239;-76
2022/12/11 00:55:57;;;;;;;60.03;20.73;;;0.70;99.90;;;;;;5074508;28;20220;-77
2022/12/11 00:58:22;;;;;;;56.77;20.03;;;0.60;99.90;;;;;;5055810;28;20197;-78
2022/12/11 01:00:48;;;;;;;51.30;19.37;;;0.60;99.90;;;;;;5056619;28;20205;-78
2022/12/11 01:03:16;;;;;;;52.47;18.83;;;0.60;99.90;;;;;;5076399;28;20196;-77
2022/12/11 01:05:49;;;;;;;45.83;17.20;;;0.60;99.90;;;;;;5078657;28;20178;-77
2022/12/11 01:08:15;;;;;;;42.80;16.00;;;0.60;99.90;;;;;;5059271;28;20210;-76
2022/12/11 01:10:40;;;;;;;41.97;16.37;;;0.60;99.90;;;;;;5073909;28;20262;-77
2022/12/11 01:13:06;;;;;;;37.40;16.37;;;0.60;99.90;;;;;;5056055;28;20621;-78
2022/12/11 01:15:38;;;;;;;37.07;15.63;;;0.60;99.90;;;;;;5073939;28;20723;-77
2022/12/11 01:18:04;;;;;;;33.20;14.73;;;0.60;99.90;;;;;;5073955;28;20571;-78
2022/12/11 01:20:30;;;;;;;40.57;16.10;;;0.60;99.90;;;;;;5056312;28;20175;-77
2022/12/11 01:22:58;;;;;;;39.77;16.17;;;0.60;99.90;;;;;;5074008;28;20232;-78
2022/12/11 01:25:25;;;;;;;39.97;13.97;;;0.60;99.90;;;;;;5074491;28;20180;-78
2022/12/11 01:27:53;;;;;;;33.13;14.03;;;0.60;99.90;;;;;;5074098;28;20194;-77
2022/12/11 01:30:20;;;;;;;39.03;15.00;;;0.60;99.90;;;;;;5074396;28;20197;-78
2022/12/11 01:32:45;;;;;;;32.00;14.07;;;0.50;99.90;;;;;;5073934;28;20210;-78
2022/12/11 01:35:12;;;;;;;40.37;16.47;;;0.60;99.90;;;;;;5073819;28;20181;-78
2022/12/11 01:37:38;;;;;;;36.93;15.10;;;0.50;99.90;;;;;;5073949;23;20277;-79
2022/12/11 01:40:05;;;;;;;41.33;16.77;;;0.50;99.90;;;;;;5093781;28;20178;-77
2022/12/11 01:42:31;;;;;;;44.57;16.93;;;0.60;99.90;;;;;;5093368;28;20185;-77
2022/12/11 01:45:21;;;;;;;51.23;18.97;;;0.60;99.90;;;;;;5093682;28;20169;-77
2022/12/11 01:47:54;;;;;;;48.77;17.87;;;0.60;99.90;;;;;;5069151;28;20208;-77
2022/12/11 01:50:20;;;;;;;41.27;19.00;;;0.60;99.90;;;;;;5073236;28;20591;-77
2022/12/11 01:52:47;;;;;;;56.07;19.73;;;0.60;99.90;;;;;;5055040;28;20226;-76
2022/12/11 01:55:14;;;;;;;43.87;19.20;;;0.60;99.90;;;;;;5073342;28;20231;-77
2022/12/11 01:57:44;;;;;;;53.27;19.43;;;0.60;99.90;;;;;;5073364;28;20204;-77
2022/12/11 02:00:10;;;;;;;47.47;20.07;;;0.60;99.90;;;;;;5073049;28;20249;-76
2022/12/11 02:02:35;;;;;;;45.30;18.40;;;0.60;99.90;;;;;;5072933;28;20521;-77
2022/12/11 02:05:04;;;;;;;48.00;18.63;;;0.60;99.90;;;;;;5073483;28;20203;-77
2022/12/11 02:07:41;;;;;;;45.43;18.03;;;0.60;99.90;;;;;;5054976;28;20673;-77
2022/12/11 02:10:08;;;;;;;45.87;17.43;;;0.70;99.90;;;;;;5077176;28;20161;-77
2022/12/11 02:12:42;;;;;;;53.20;18.57;;;0.70;99.90;;;;;;5059138;28;20346;-76
2022/12/11 02:18:41;;;;;;;42.93;16.43;;;0.70;99.90;;;;;;5076916;28;20197;-76
2022/12/11 02:21:17;;;;;;;49.53;17.73;;;0.70;99.90;;;;;;5059004;28;20158;-77
2022/12/11 02:24:20;;;;;;;48.10;18.27;;;0.70;99.90;;;;;;5076918;28;20581;-77
2022/12/11 02:27:02;;;;;;;56.77;19.77;;;0.80;99.90;;;;;;5077138;28;20162;-77
2022/12/11 02:29:46;;;;;;;42.77;16.97;;;0.80;99.90;;;;;;5058705;28;20670;-77
2022/12/11 02:32:35;;;;;;;50.40;19.10;;;0.80;99.90;;;;;;5058568;28;20292;-77
2022/12/11 02:35:29;;;;;;;45.87;16.93;;;0.80;99.90;;;;;;5076381;28;20167;-78
2022/12/11 02:37:58;;;;;;;49.20;19.27;;;0.80;99.90;;;;;;5058502;28;20286;-77
2022/12/11 02:40:29;;;;;;;45.13;16.97;;;0.80;99.90;;;;;;5058317;28;20178;-77
2022/12/11 02:42:57;;;;;;;53.00;18.30;;;0.80;99.90;;;;;;5076494;28;20170;-77
2022/12/11 02:45:25;;;;;;;54.73;19.23;;;0.80;99.90;;;;;;5077014;28;20261;-77
2022/12/11 02:47:51;;;;;;;57.30;18.47;;;0.80;99.90;;;;;;5076290;28;20201;-77
2022/12/11 02:50:20;;;;;;;54.23;17.13;;;0.80;99.90;;;;;;5058276;28;20251;-77
2022/12/11 02:52:48;;;;;;;45.57;19.00;;;0.90;99.90;;;;;;5058154;28;20259;-77
2022/12/11 02:55:15;;;;;;;45.50;19.47;;;0.80;99.90;;;;;;5076356;28;20266;-77
2022/12/11 02:58:03;;;;;;;50.73;19.57;;;0.90;99.90;;;;;;5058063;28;20193;-77
2022/12/11 03:00:28;;;;;;;49.20;18.23;;;0.80;99.90;;;;;;5076428;28;20185;-78
2022/12/11 03:02:55;;;;;;;49.30;18.10;;;0.90;99.90;;;;;;5057913;28;20171;-77
2022/12/11 03:05:20;;;;;;;49.43;18.53;;;0.90;99.90;;;;;;5058720;28;20186;-77
2022/12/11 03:07:46;;;;;;;45.70;18.00;;;0.90;99.90;;;;;;5076661;28;20194;-77
2022/12/11 03:10:17;;;;;;;50.10;20.33;;;0.90;99.90;;;;;;5058250;28;20387;-77
2022/12/11 03:12:47;;;;;;;50.27;19.13;;;0.90;99.90;;;;;;5058035;28;20722;-77
2022/12/11 03:15:16;;;;;;;51.57;20.43;;;0.90;99.90;;;;;;5058104;28;20167;-76
2022/12/11 03:18:18;;;;;;;47.30;19.43;;;0.90;99.90;;;;;;5058363;28;20199;-76
2022/12/11 03:20:49;;;;;;;56.03;20.17;;;0.90;99.90;;;;;;5067031;28;20185;-79
2022/12/11 03:23:36;;;;;;;50.97;18.67;;;0.80;99.90;;;;;;5079809;28;20167;-77
2022/12/11 03:26:09;;;;;;;49.37;18.93;;;0.90;99.90;;;;;;5077028;28;20654;-77
2022/12/11 03:28:48;;;;;;;45.57;18.37;;;0.90;99.90;;;;;;5057564;28;20271;-77
2022/12/11 03:31:25;;;;;;;52.80;20.07;;;0.90;99.90;;;;;;5075773;28;20661;-79
2022/12/11 03:33:55;;;;;;;45.83;17.87;;;0.90;99.90;;;;;;5058136;28;20170;-77
2022/12/11 03:36:25;;;;;;;46.87;18.93;;;0.90;99.90;;;;;;5057430;28;20178;-77
2022/12/11 03:39:00;;;;;;;52.37;20.27;;;0.90;99.90;;;;;;5057327;28;20213;-77
2022/12/11 03:41:29;;;;;;;49.47;19.37;;;0.90;99.90;;;;;;5057438;28;20163;-76
2022/12/11 03:43:57;;;;;;;51.33;20.30;;;1.00;99.90;;;;;;5075322;28;20198;-77
2022/12/11 03:46:28;;;;;;;54.37;20.17;;;0.90;99.90;;;;;;5075298;28;20179;-77
2022/12/11 03:49:00;;;;;;;45.90;20.10;;;0.90;99.90;;;;;;5075110;28;20248;-77
2022/12/11 03:51:27;;;;;;;52.53;19.40;;;1.00;99.90;;;;;;5075283;28;20709;-77
2022/12/11 03:53:54;;;;;;;50.20;19.40;;;1.00;99.90;;;;;;5075072;28;20187;-77
2022/12/11 03:56:22;;;;;;;49.80;19.17;;;1.00;99.90;;;;;;5056958;28;20270;-77
2022/12/11 03:58:48;;;;;;;53.13;21.33;;;1.00;99.90;;;;;;5056906;28;20199;-77
2022/12/11 04:01:14;;;;;;;42.70;20.10;;;1.00;99.90;;;;;;5074964;28;20174;-77
2022/12/11 04:03:39;;;;;;;50.30;19.37;;;1.00;99.90;;;;;;5056791;28;20579;-77
2022/12/11 04:06:05;;;;;;;52.53;20.60;;;1.00;99.90;;;;;;5074725;28;20227;-77
2022/12/11 04:08:31;;;;;;;49.57;20.57;;;1.00;99.90;;;;;;5074611;28;20213;-77
2022/12/11 04:13:41;;;;;;;44.63;18.90;;;1.00;99.90;;;;;;5074657;28;20233;-77
2022/12/11 04:16:07;;;;;;;49.50;19.83;;;1.10;99.90;;;;;;5074653;28;20287;-77
2022/12/11 04:24:14;;;;;;;37.43;18.20;;;1.10;99.90;;;;;;5075101;28;20208;-77
2022/12/11 04:26:41;;;;;;;51.73;19.73;;;1.10;99.90;;;;;;5074857;28;20186;-78
2022/12/11 04:29:06;;;;;;;51.43;20.37;;;1.10;99.90;;;;;;5056578;28;20199;-77
2022/12/11 04:31:32;;;;;;;54.47;19.60;;;1.10;99.90;;;;;;5073219;28;20180;-77
2022/12/11 04:33:57;;;;;;;54.40;20.30;;;1.10;99.90;;;;;;5056317;28;20269;-77
2022/12/11 04:36:23;;;;;;;49.23;19.40;;;1.10;99.90;;;;;;5056199;28;20216;-77
2022/12/11 04:38:48;;;;;;;53.83;19.67;;;1.10;99.90;;;;;;5074313;28;20249;-77
2022/12/11 04:41:15;;;;;;;53.70;21.07;;;1.10;99.90;;;;;;5056185;28;20183;-76
2022/12/11 04:43:43;;;;;;;52.10;21.30;;;1.10;99.90;;;;;;5074029;28;20182;-77
2022/12/11 04:46:15;;;;;;;59.00;22.57;;;1.10;99.90;;;;;;5074522;28;20177;-77
2022/12/11 04:48:41;;;;;;;57.67;22.73;;;1.10;99.90;;;;;;5076018;28;20281;-77
2022/12/11 04:51:07;;;;;;;53.07;21.03;;;1.10;99.90;;;;;;5076087;28;20300;-77
2022/12/11 04:53:33;;;;;;;56.10;21.37;;;1.10;99.90;;;;;;5075486;28;20295;-77
2022/12/11 04:55:59;;;;;;;49.67;21.03;;;1.10;99.90;;;;;;5073880;28;20275;-77
2022/12/11 04:58:25;;;;;;;58.37;21.87;;;1.10;99.90;;;;;;5073570;28;20203;-77
2022/12/11 05:00:51;;;;;;;50.40;20.00;;;1.10;99.90;;;;;;5055860;28;20197;-77
2022/12/11 05:03:17;;;;;;;51.83;21.77;;;1.10;99.90;;;;;;5073684;28;20181;-76
2022/12/11 05:05:50;;;;;;;51.50;21.60;;;1.10;99.90;;;;;;5073735;28;20170;-77
2022/12/11 05:08:17;;;;;;;57.10;20.97;;;1.10;99.90;;;;;;5073488;28;20286;-76
2022/12/11 05:10:43;;;;;;;47.70;20.30;;;1.20;99.90;;;;;;5057320;28;20182;-77
2022/12/11 05:13:08;;;;;;;49.63;21.07;;;1.10;99.90;;;;;;5055568;28;20704;-77
2022/12/11 05:15:34;;;;;;;50.80;20.97;;;1.10;99.90;;;;;;5073670;28;20182;-77
2022/12/11 05:17:59;;;;;;;45.70;19.80;;;1.10;99.90;;;;;;5073575;28;20195;-77
2022/12/11 05:20:25;;;;;;;45.93;20.60;;;1.10;99.90;;;;;;5055586;28;20174;-77
2022/12/11 05:22:50;;;;;;;42.70;19.23;;;1.10;99.90;;;;;;5073545;28;20182;-76
2022/12/11 05:25:16;;;;;;;42.77;17.80;;;1.10;99.90;;;;;;5073284;28;20225;-76
2022/12/11 05:27:41;;;;;;;44.67;18.17;;;1.10;99.90;;;;;;5073426;28;20650;-77
2022/12/11 05:30:08;;;;;;;41.20;17.83;;;1.20;99.90;;;;;;5073207;28;20179;-77
2022/12/11 05:32:34;;;;;;;40.53;19.07;;;1.20;99.90;;;;;;5055269;28;20333;-77
2022/12/11 05:34:59;;;;;;;41.90;18.30;;;1.10;99.90;;;;;;5055284;28;20253;-77
2022/12/11 05:37:26;;;;;;;44.90;20.40;;;1.10;99.90;;;;;;5073097;28;20667;-77
2022/12/11 05:39:51;;;;;;;40.23;17.97;;;1.10;99.90;;;;;;5055591;28;20274;-77
2022/12/11 05:42:17;;;;;;;42.07;18.37;;;1.20;99.90;;;;;;5073042;28;20261;-77
2022/12/11 05:44:42;;;;;;;45.17;19.57;;;1.20;99.90;;;;;;5072982;28;20265;-77
2022/12/11 05:47:08;;;;;;;44.33;21.07;;;1.10;99.90;;;;;;5073321;28;20197;-77
2022/12/11 05:49:33;;;;;;;44.20;19.27;;;1.20;99.90;;;;;;5073023;28;20236;-77
2022/12/11 05:51:59;;;;;;;39.03;17.87;;;1.10;99.90;;;;;;5055027;28;20202;-77
2022/12/11 05:54:24;;;;;;;42.47;19.07;;;1.10;99.90;;;;;;5055101;28;20178;-77
2022/12/11 05:56:50;;;;;;;40.03;18.10;;;1.20;99.90;;;;;;5055122;28;20185;-76
2022/12/11 05:59:17;;;;;;;34.90;17.40;;;1.10;99.90;;;;;;5054923;28;20199;-77
2022/12/11 06:01:43;;;;;;;47.40;19.53;;;1.20;99.90;;;;;;5073428;28;20173;-77
2022/12/11 06:04:11;;;;;;;39.70;18.73;;;1.10;99.90;;;;;;5073137;28;20198;-77
2022/12/11 06:06:37;;;;;;;37.37;18.57;;;1.20;99.90;;;;;;5073093;28;20175;-76
2022/12/11 06:09:04;;;;;;;39.93;17.53;;;1.10;99.90;;;;;;5072938;28;20198;-77
2022/12/11 06:11:31;;;;;;;35.67;17.37;;;1.10;99.90;;;;;;5072720;28;20171;-76
2022/12/11 06:13:57;;;;;;;32.87;17.63;;;1.10;99.90;;;;;;5072917;28;20217;-77
2022/12/11 06:16:23;;;;;;;40.93;18.80;;;1.20;99.90;;;;;;5072828;28;20191;-76
2022/12/11 06:18:49;;;;;;;39.00;17.93;;;1.10;99.90;;;;;;5054640;28;20255;-77
2022/12/11 06:21:18;;;;;;;36.80;16.53;;;1.10;99.90;;;;;;5072723;28;20174;-76
2022/12/11 06:23:46;;;;;;;37.40;17.90;;;1.20;99.90;;;;;;5072637;28;20555;-76
2022/12/11 06:26:12;;;;;;;36.37;17.20;;;1.10;99.90;;;;;;5072863;28;20167;-76
2022/12/11 06:28:37;;;;;;;39.60;18.07;;;1.10;99.90;;;;;;5072593;28;20248;-76
2022/12/11 06:31:03;;;;;;;35.40;16.23;;;1.10;99.90;;;;;;5072647;28;20266;-77
2022/12/11 06:33:29;;;;;;;36.87;16.97;;;1.10;99.90;;;;;;5054618;28;20605;-77
2022/12/11 06:35:55;;;;;;;39.77;18.40;;;1.10;99.90;;;;;;5072770;28;20587;-77
2022/12/11 06:38:21;;;;;;;36.90;17.53;;;1.10;99.90;;;;;;5054779;28;20217;-78
2022/12/11 06:40:54;;;;;;;42.53;18.13;;;1.10;99.90;;;;;;5054735;28;20303;-77
2022/12/11 06:43:20;;;;;;;44.80;18.50;;;1.10;99.90;;;;;;5054667;28;20221;-77
2022/12/11 06:45:46;;;;;;;46.57;18.60;;;1.10;99.90;;;;;;5054709;28;20183;-76
2022/12/11 06:48:11;;;;;;;40.80;17.13;;;1.10;99.90;;;;;;5072670;28;20671;-77
2022/12/11 06:50:37;;;;;;;41.00;17.87;;;1.10;99.90;;;;;;5072619;28;20183;-77
2022/12/11 06:53:03;;;;;;;35.47;16.90;;;1.10;99.90;;;;;;5054440;28;20206;-77
2022/12/11 06:55:28;;;;;;;36.53;17.37;;;1.10;99.90;;;;;;5056125;28;20665;-76
2022/12/11 06:57:54;;;;;;;35.60;16.50;;;1.10;99.90;;;;;;5076181;28;20190;-77
2022/12/11 07:00:20;;;;;;;33.73;16.47;;;1.10;99.90;;;;;;5058566;28;20171;-78
2022/12/11 07:02:45;;;;;;;38.57;15.67;;;1.10;99.90;;;;;;5076254;28;20171;-77
2022/12/11 07:05:11;;;;;;;40.47;17.40;;;1.10;99.90;;;;;;5076175;28;20659;-77
2022/12/11 07:07:36;;;;;;;42.43;17.30;;;1.10;99.90;;;;;;5076206;28;20243;-76
2022/12/11 07:10:03;;;;;;;31.90;16.33;;;1.10;99.90;;;;;;5058321;28;20178;-77
2022/12/11 07:12:28;;;;;;;37.47;16.77;;;1.10;99.90;;;;;;5076122;28;20695;-76
2022/12/11 07:14:54;;;;;;;38.83;17.00;;;1.10;99.90;;;;;;5076869;28;20170;-77
2022/12/11 07:17:19;;;;;;;33.80;16.03;;;1.10;99.90;;;;;;5075826;28;20179;-77
2022/12/11 07:19:45;;;;;;;35.50;16.30;;;1.10;99.90;;;;;;5075833;28;20172;-76
2022/12/11 07:22:10;;;;;;;35.60;17.17;;;1.10;99.90;;;;;;5058112;28;20170;-77
2022/12/11 07:24:36;;;;;;;42.03;16.43;;;1.10;99.90;;;;;;5075808;28;20522;-76
2022/12/11 07:27:03;;;;;;;39.33;17.57;;;1.10;99.90;;;;;;5057772;28;20700;-77
2022/12/11 07:29:28;;;;;;;34.77;16.60;;;2.40;99.90;;;;;;5057758;28;20174;-76
2022/12/11 07:31:54;;;;;;;32.33;16.13;;;1.10;99.90;;;;;;5075673;28;20255;-77
2022/12/11 07:34:19;;;;;;;36.80;16.53;;;1.10;99.90;;;;;;5075759;28;20257;-76
2022/12/11 07:36:45;;;;;;;39.97;17.50;;;1.10;99.90;;;;;;5057635;28;20178;-76
2022/12/11 07:39:11;;;;;;;32.47;15.57;;;1.10;99.90;;;;;;5104299;22;20226;-78
2022/12/11 07:41:38;;;;;;;32.10;15.93;;;1.10;99.90;;;;;;5096392;28;20247;-78
2022/12/11 07:44:04;;;;;;;35.07;17.03;;;1.10;99.90;;;;;;5094660;28;20226;-77
2022/12/11 07:46:31;;;;;;;36.87;15.23;;;1.10;99.90;;;;;;5094647;28;20166;-78
2022/12/11 07:48:57;;;;;;;38.70;15.13;;;1.10;99.90;;;;;;5094161;28;20593;-78
2022/12/11 07:51:27;;;;;;;32.53;16.00;;;1.10;99.90;;;;;;5095773;28;20172;-78
2022/12/11 07:53:56;;;;;;;38.50;15.33;;;1.10;99.90;;;;;;5094201;28;20267;-78
2022/12/11 07:56:22;;;;;;;35.90;16.27;;;1.10;99.90;;;;;;5095657;28;20175;-78
2022/12/11 07:58:48;;;;;;;39.23;15.60;;;1.10;99.90;;;;;;5095616;28;20200;-78
2022/12/11 08:01:17;;;;;;;33.27;15.80;;;1.10;99.90;;;;;;5094150;28;20187;-77
2022/12/11 08:03:43;;;;;;;35.33;15.90;;;1.10;99.90;;;;;;5094252;28;20721;-78
2022/12/11 08:06:09;;;;;;;35.70;15.97;;;1.10;99.90;;;;;;5093949;28;20185;-78
2022/12/11 08:08:35;;;;;;;35.50;16.40;;;1.10;99.90;;;;;;5095521;28;20594;-79
2022/12/11 08:11:02;;;;;;;34.47;15.30;;;1.10;99.90;;;;;;5096455;28;20178;-80
2022/12/11 08:13:28;;;;;;;32.87;15.53;;;1.10;99.90;;;;;;5097717;28;20251;-79
2022/12/11 08:15:53;;;;;;;34.57;15.60;;;1.20;99.90;;;;;;5097063;28;20264;-80
2022/12/11 08:18:19;;;;;;;35.43;16.13;;;1.20;99.90;;;;;;5098622;28;20673;-80
2022/12/11 08:20:44;;;;;;;32.20;15.47;;;1.20;99.90;;;;;;5097480;28;20170;-80
2022/12/11 08:23:10;;;;;;;33.53;16.23;;;1.20;99.90;;;;;;5098242;28;20174;-80
2022/12/11 08:25:36;;;;;;;32.00;16.73;;;1.20;99.90;;;;;;5095926;28;20273;-80
2022/12/11 08:28:01;;;;;;;33.40;15.73;;;1.20;99.90;;;;;;5095571;28;20193;-80
2022/12/11 08:30:27;;;;;;;33.53;15.90;;;1.20;99.90;;;;;;5096032;28;20174;-79
2022/12/11 08:32:52;;;;;;;30.60;15.83;;;1.20;99.90;;;;;;5096977;28;20201;-79
2022/12/11 08:35:18;;;;;;;30.27;15.17;;;1.20;99.90;;;;;;5096864;28;20182;-79
2022/12/11 08:37:44;;;;;;;34.70;16.13;;;1.20;99.90;;;;;;5097165;28;20178;-79
2022/12/11 08:40:11;;;;;;;37.33;16.90;;;1.20;99.90;;;;;;5095923;28;20217;-79
2022/12/11 08:42:36;;;;;;;31.63;16.00;;;1.20;99.90;;;;;;5097021;28;20192;-79
2022/12/11 08:45:03;;;;;;;34.00;16.53;;;1.20;99.90;;;;;;5097428;28;20261;-79
2022/12/11 08:47:28;;;;;;;29.67;15.13;;;1.20;99.90;;;;;;5097232;28;20257;-79
2022/12/11 08:49:54;;;;;;;30.77;16.00;;;1.20;99.90;;;;;;5097607;28;20198;-79
2022/12/11 08:52:19;;;;;;;32.47;15.43;;;1.20;99.90;;;;;;5097017;28;20721;-80
2022/12/11 08:54:44;;;;;;;32.37;15.57;;;1.30;99.90;;;;;;5097403;28;20255;-79
2022/12/11 08:57:10;;;;;;;32.33;15.53;;;1.20;99.90;;;;;;5097109;28;20189;-80
2022/12/11 08:59:35;;;;;;;27.50;14.80;;;1.30;99.90;;;;;;5095192;28;20197;-79
2022/12/11 09:02:01;;;;;;;28.97;15.07;;;1.30;99.90;;;;;;5095127;28;20619;-79
2022/12/11 09:04:26;;;;;;;28.77;15.80;;;1.40;99.90;;;;;;5096587;28;20176;-79
2022/12/11 09:06:52;;;;;;;29.63;15.50;;;1.40;99.90;;;;;;5097078;28;20535;-80
2022/12/11 09:09:17;;;;;;;31.13;15.37;;;1.40;99.90;;;;;;5096469;28;20201;-79
2022/12/11 09:11:43;;;;;;;28.60;15.27;;;1.40;99.90;;;;;;5097215;28;20189;-79
2022/12/11 09:14:08;;;;;;;28.90;15.37;;;1.40;99.90;;;;;;5096378;28;20175;-79
2022/12/11 09:16:39;;;;;;;26.73;14.63;;;1.40;99.90;;;;;;5094243;28;20181;-79
2022/12/11 09:19:06;;;;;;;27.00;14.53;;;1.40;99.90;;;;;;5094000;28;20206;-79
2022/12/11 09:21:32;;;;;;;31.03;15.17;;;1.40;99.90;;;;;;5096520;28;20600;-79
2022/12/11 09:23:59;;;;;;;27.60;15.57;;;1.40;99.90;;;;;;5096276;28;20181;-78
2022/12/11 09:26:26;;;;;;;32.47;14.90;;;1.40;99.90;;;;;;5096290;28;20170;-80
2022/12/11 09:28:52;;;;;;;27.97;14.10;;;1.50;99.90;;;;;;5095020;28;20194;-80
2022/12/11 09:31:27;;;;;;;23.40;12.73;;;1.50;99.90;;;;;;5094776;28;20258;-80
2022/12/11 09:33:59;;;;;;;30.30;15.07;;;1.40;99.90;;;;;;5096587;28;20193;-80
2022/12/11 09:36:25;;;;;;;25.03;13.60;;;1.40;99.90;;;;;;5094775;28;20163;-79
2022/12/11 09:38:51;;;;;;;27.93;14.97;;;1.40;99.90;;;;;;5094305;28;20217;-80
2022/12/11 09:41:20;;;;;;;25.17;13.27;;;1.50;99.90;;;;;;5096002;28;20224;-80
2022/12/11 09:44:20;;;;;;;28.10;14.87;;;1.40;99.90;;;;;;5094601;28;20174;-80
2022/12/11 09:46:47;;;;;;;30.37;14.37;;;1.50;99.90;;;;;;5096003;28;20241;-81
2022/12/11 09:49:33;;;;;;;23.77;14.03;;;1.50;99.90;;;;;;5095345;28;20674;-81
2022/12/11 09:52:07;;;;;;;28.93;14.73;;;1.50;99.90;;;;;;5096561;28;20189;-80
2022/12/11 09:54:33;;;;;;;31.47;14.67;;;1.50;99.90;;;;;;5095424;28;20166;-81
2022/12/11 09:57:27;;;;;;;23.43;13.93;;;1.50;99.90;;;;;;5095189;28;20173;-81
2022/12/11 10:00:30;;;;;;;24.17;13.37;;;1.50;99.90;;;;;;5096864;28;20273;-81
2022/12/11 10:03:01;;;;;;;29.93;14.57;;;1.40;99.90;;;;;;5097147;28;20177;-80
2022/12/11 10:05:59;;;;;;;23.93;13.47;;;1.50;99.90;;;;;;5097033;28;20159;-80
2022/12/11 10:08:31;;;;;;;27.63;13.90;;;1.50;99.90;;;;;;5097790;28;20216;-80
2022/12/11 10:11:21;;;;;;;24.47;13.60;;;1.50;99.90;;;;;;5097423;28;20528;-81
2022/12/11 10:14:03;;;;;;;22.90;12.27;;;1.50;99.90;;;;;;5096011;28;20201;-81
2022/12/11 10:16:37;;;;;;;19.87;10.90;;;1.50;99.90;;;;;;5096191;28;20166;-81
2022/12/11 10:19:04;;;;;;;18.83;10.37;;;1.50;99.90;;;;;;5096252;28;20253;-81
2022/12/11 10:21:38;;;;;;;19.50;10.50;;;1.50;99.90;;;;;;5098379;28;20170;-81
2022/12/11 10:24:09;;;;;;;18.53;11.37;;;1.50;99.90;;;;;;5097552;28;20184;-81
2022/12/11 10:26:38;;;;;;;24.93;11.53;;;1.50;99.90;;;;;;5097177;28;20181;-80
2022/12/11 10:29:11;;;;;;;20.97;11.80;;;1.50;99.90;;;;;;5097141;28;20201;-81
2022/12/11 10:31:55;;;;;;;20.43;11.73;;;1.40;99.90;;;;;;5102051;28;20261;-81
2022/12/11 10:34:34;;;;;;;17.13;10.60;;;1.40;99.90;;;;;;5100471;28;20189;-81
2022/12/11 10:37:01;;;;;;;24.93;11.33;;;1.50;99.90;;;;;;5110030;28;20216;-80
2022/12/11 10:39:26;;;;;;;24.57;11.40;;;1.40;99.90;;;;;;5112171;28;20221;-81
2022/12/11 10:41:54;;;;;;;20.73;11.63;;;1.50;99.90;;;;;;5108490;28;20257;-81
2022/12/11 10:44:24;;;;;;;25.70;12.93;;;1.50;99.90;;;;;;5100502;28;20182;-80
2022/12/11 10:47:10;;;;;;;21.57;11.47;;;1.50;99.90;;;;;;5099023;28;20182;-81
2022/12/11 10:49:37;;;;;;;24.10;11.77;;;1.50;99.90;;;;;;5100513;28;20190;-81
2022/12/11 10:52:22;;;;;;;19.83;11.83;;;1.50;99.90;;;;;;5100324;28;20546;-80
2022/12/11 10:55:14;;;;;;;20.93;11.53;;;1.40;99.90;;;;;;5100379;28;20165;-81
2022/12/11 10:57:41;;;;;;;15.93;9.57;;;1.40;99.90;;;;;;5068240;28;20689;-77
2022/12/11 11:00:25;;;;;;;20.23;11.43;;;1.40;99.90;;;;;;5102031;28;20491;-80
2022/12/11 11:02:50;;;;;;;22.57;11.97;;;1.50;99.90;;;;;;5102992;28;20178;-79
2022/12/11 11:05:36;;;;;;;24.63;11.67;;;1.50;99.90;;;;;;5102112;28;20196;-79
2022/12/11 11:08:15;;;;;;;22.27;12.37;;;1.50;99.90;;;;;;5103035;28;20200;-79
2022/12/11 11:10:56;;;;;;;19.17;10.53;;;1.50;99.90;;;;;;5103408;28;20178;-80
2022/12/11 11:13:24;;;;;;;25.20;12.17;;;1.60;99.90;;;;;;5101649;28;20202;-79
2022/12/11 11:16:10;;;;;;;21.53;10.97;;;1.60;99.90;;;;;;5103824;28;20264;-79
2022/12/11 11:18:39;;;;;;;18.63;11.20;;;1.50;99.90;;;;;;5103040;28;20643;-80
2022/12/11 11:21:05;;;;;;;18.33;11.33;;;1.50;99.90;;;;;;5101945;28;20181;-80
2022/12/11 11:23:33;;;;;;;19.00;10.70;;;1.50;99.90;;;;;;5101645;28;20185;-80
2022/12/11 11:26:06;;;;;;;16.77;10.30;;;1.60;99.90;;;;;;5103886;28;20174;-79
2022/12/11 11:28:39;;;;;;;22.03;11.23;;;1.50;99.90;;;;;;5103807;28;20280;-79
2022/12/11 11:31:10;;;;;;;22.10;10.87;;;1.50;99.90;;;;;;5103767;28;20163;-80
2022/12/11 11:33:46;;;;;;;21.07;10.33;;;1.50;99.90;;;;;;5103304;28;20194;-80
2022/12/11 11:36:24;;;;;;;20.60;10.70;;;1.50;99.90;;;;;;5102078;28;20178;-80
2022/12/11 11:39:18;;;;;;;19.83;10.60;;;1.50;99.90;;;;;;5101084;28;20223;-80
2022/12/11 11:42:06;;;;;;;20.97;11.03;;;1.50;99.90;;;;;;5101868;28;20170;-79
2022/12/11 11:44:43;;;;;;;17.53;10.20;;;1.50;99.90;;;;;;5101409;28;20174;-79
2022/12/11 11:47:23;;;;;;;18.10;10.00;;;1.40;99.90;;;;;;5101875;28;20262;-79
2022/12/11 11:49:58;;;;;;;19.83;10.17;;;1.40;99.90;;;;;;5102272;28;20243;-79
2022/12/11 11:52:50;;;;;;;18.77;10.33;;;1.40;99.90;;;;;;5096319;28;20202;-79
2022/12/11 11:55:34;;;;;;;16.57;9.93;;;1.40;99.90;;;;;;5099353;28;20154;-79
2022/12/11 11:58:07;;;;;;;16.40;9.07;;;1.40;99.90;;;;;;5097620;28;20218;-79
2022/12/11 12:00:32;;;;;;;21.00;9.93;;;1.40;99.90;;;;;;5097150;28;20170;-79
2022/12/11 12:03:19;;;;;;;20.53;9.97;;;1.40;99.90;;;;;;5098513;28;20177;-79
2022/12/11 12:06:11;;;;;;;21.40;10.53;;;1.40;99.90;;;;;;5099002;28;20662;-78
2022/12/11 12:08:49;;;;;;;17.40;9.37;;;1.40;99.90;;;;;;5097456;28;20196;-80
2022/12/11 12:11:41;;;;;;;18.80;10.17;;;1.40;99.90;;;;;;5098598;28;20170;-79
2022/12/11 12:14:12;;;;;;;16.67;10.40;;;1.40;99.90;;;;;;5099445;28;20162;-80
2022/12/11 12:16:57;;;;;;;14.93;8.90;;;1.40;99.90;;;;;;5097447;28;20657;-80
2022/12/11 12:19:40;;;;;;;17.20;10.43;;;1.50;99.90;;;;;;5097108;28;20193;-79
2022/12/11 12:22:44;;;;;;;19.30;10.47;;;1.50;99.90;;;;;;5098424;28;20169;-80
2022/12/11 12:25:27;;;;;;;16.20;9.90;;;1.50;99.90;;;;;;5098866;28;20170;-79
2022/12/11 12:28:12;;;;;;;21.37;10.63;;;1.40;99.90;;;;;;5096900;28;20205;-79
2022/12/11 12:31:01;;;;;;;19.87;11.43;;;1.50;99.90;;;;;;5097115;28;20205;-80
2022/12/11 12:34:05;;;;;;;17.63;10.63;;;1.50;99.90;;;;;;5098641;28;20190;-79
2022/12/11 12:36:42;;;;;;;29.37;11.23;;;1.60;99.90;;;;;;5067179;28;20239;-78
2022/12/11 12:39:26;;;;;;;21.63;11.67;;;1.60;99.90;;;;;;5096866;28;20213;-79
2022/12/11 12:42:30;;;;;;;23.03;12.43;;;1.70;99.90;;;;;;5098172;28;20161;-78
2022/12/11 12:45:14;;;;;;;21.53;11.40;;;1.60;99.90;;;;;;5078948;28;20236;-79
2022/12/11 12:47:43;;;;;;;20.60;12.00;;;1.70;99.90;;;;;;5098359;28;20520;-78
2022/12/11 12:50:18;;;;;;;20.43;11.97;;;1.70;99.90;;;;;;5099798;28;20514;-79
2022/12/11 12:52:46;;;;;;;22.23;12.17;;;1.70;99.90;;;;;;5098282;28;20205;-77
2022/12/11 12:55:21;;;;;;;20.70;11.93;;;1.60;99.90;;;;;;5100439;28;20290;-79
2022/12/11 12:57:59;;;;;;;20.03;11.57;;;1.60;99.90;;;;;;5099925;28;20200;-79
2022/12/11 13:00:37;;;;;;;21.70;12.47;;;1.70;99.90;;;;;;5101149;28;20170;-79
2022/12/11 13:03:13;;;;;;;21.83;12.20;;;1.70;99.90;;;;;;5100168;28;20528;-79
2022/12/11 13:05:43;;;;;;;22.33;11.83;;;1.70;99.90;;;;;;5098774;28;20192;-79